Time;durP1;ratioP1;P1;durP2;ratioP2;P2;SDS_P1;SDS_P2;PMS_P1;PMS_P2;Temp;Humidity;BMP_temperature;BMP_pressure;BME280_temperature;BME280_humidity;BME280_pressure;Samples;Min_cycle;Max_cycle;Signal;HPM_P1;HPM_P2
2022/05/10 00:00:49;;;;;;;12.87;8.93;;;14.00;99.90;;;;;;5036216;28;20564;-73
2022/05/10 00:03:16;;;;;;;12.83;8.57;;;13.90;99.90;;;;;;5050798;28;20459;-73
2022/05/10 00:05:43;;;;;;;10.13;7.60;;;13.90;99.90;;;;;;5045616;28;20519;-73
2022/05/10 00:08:12;;;;;;;5.80;5.30;;;13.90;99.90;;;;;;5032151;28;20873;-73
2022/05/10 00:10:41;;;;;;;6.80;5.40;;;13.80;99.90;;;;;;5032621;28;20519;-73
2022/05/10 00:13:08;;;;;;;11.43;5.97;;;13.80;99.90;;;;;;5044737;28;20511;-73
2022/05/10 00:15:35;;;;;;;8.80;5.67;;;13.80;99.90;;;;;;5026046;28;20453;-73
2022/05/10 00:18:02;;;;;;;8.67;6.07;;;13.70;99.90;;;;;;5032699;28;20453;-73
2022/05/10 00:20:29;;;;;;;7.23;5.80;;;13.70;99.90;;;;;;5032917;28;21022;-73
2022/05/10 00:22:56;;;;;;;12.00;5.90;;;13.70;99.90;;;;;;5045899;28;20456;-73
2022/05/10 00:25:26;;;;;;;7.50;6.73;;;13.60;99.90;;;;;;5041117;28;20481;-73
2022/05/10 00:27:54;;;;;;;9.50;6.20;;;13.60;99.90;;;;;;5032288;28;20453;-73
2022/05/10 00:30:21;;;;;;;6.30;5.80;;;13.60;99.90;;;;;;5048491;28;20456;-73
2022/05/10 00:32:48;;;;;;;18.23;6.97;;;13.60;99.90;;;;;;5035039;28;21011;-73
2022/05/10 00:35:17;;;;;;;10.57;5.90;;;13.50;99.90;;;;;;5034878;28;20872;-73
2022/05/10 00:37:45;;;;;;;6.20;5.63;;;13.60;99.90;;;;;;5051752;28;20460;-73
2022/05/10 00:40:14;;;;;;;6.63;5.50;;;13.50;99.90;;;;;;5035813;28;20962;-73
2022/05/10 00:42:52;;;;;;;6.30;5.70;;;13.60;99.90;;;;;;5032073;28;20453;-73
2022/05/10 00:45:25;;;;;;;7.00;6.10;;;13.60;99.90;;;;;;5031346;28;20489;-73
2022/05/10 00:48:05;;;;;;;7.40;6.10;;;13.50;99.90;;;;;;5031453;28;20527;-73
2022/05/10 00:50:37;;;;;;;8.77;6.37;;;13.50;99.90;;;;;;5050319;28;20476;-73
2022/05/10 00:53:08;;;;;;;9.47;6.90;;;13.50;99.90;;;;;;5051739;28;20862;-73
2022/05/10 00:55:40;;;;;;;7.97;6.90;;;13.40;99.90;;;;;;5032717;28;20526;-73
2022/05/10 00:58:18;;;;;;;9.20;6.50;;;13.40;99.90;;;;;;5047735;28;20486;-73
2022/05/10 01:00:47;;;;;;;10.90;6.63;;;13.40;99.90;;;;;;5011919;28;20469;-73
2022/05/10 01:03:23;;;;;;;13.20;6.47;;;13.30;99.90;;;;;;5043247;28;20452;-73
2022/05/10 01:05:57;;;;;;;8.03;7.23;;;13.30;99.90;;;;;;5051111;28;20972;-73
2022/05/10 01:08:27;;;;;;;6.57;5.97;;;13.30;99.90;;;;;;5050022;28;20949;-73
2022/05/10 01:10:57;;;;;;;10.23;7.50;;;13.20;99.90;;;;;;5031149;28;20862;-73
2022/05/10 01:13:28;;;;;;;8.23;7.37;;;13.10;99.90;;;;;;5040648;28;20460;-73
2022/05/10 01:16:05;;;;;;;6.97;6.37;;;13.10;99.90;;;;;;5051065;28;20543;-73
2022/05/10 01:18:32;;;;;;;7.30;6.60;;;13.00;99.90;;;;;;5043060;28;21082;-73
2022/05/10 01:21:06;;;;;;;10.30;7.23;;;12.90;99.90;;;;;;5037430;28;20469;-73
2022/05/10 01:24:13;;;;;;;9.70;6.90;;;12.90;99.90;;;;;;5032087;28;20480;-73
2022/05/10 01:26:52;;;;;;;7.40;6.03;;;12.80;99.90;;;;;;4984379;28;20457;-73
2022/05/10 01:29:26;;;;;;;8.23;7.43;;;12.70;99.90;;;;;;5038967;28;20514;-73
2022/05/10 01:34:40;;;;;;;10.13;6.70;;;12.70;99.90;;;;;;5029388;28;20433;-73
2022/05/10 01:37:12;;;;;;;8.20;7.40;;;12.60;99.90;;;;;;5032075;28;20772;-73
2022/05/10 01:39:45;;;;;;;7.83;7.13;;;12.60;99.90;;;;;;5038479;28;20454;-73
2022/05/10 01:42:19;;;;;;;9.47;7.40;;;12.60;99.90;;;;;;5031324;28;20511;-73
2022/05/10 01:44:54;;;;;;;9.57;7.47;;;12.50;99.90;;;;;;5030504;28;20531;-73
2022/05/10 01:47:26;;;;;;;14.90;8.10;;;12.50;99.90;;;;;;5032375;28;20940;-73
2022/05/10 01:49:58;;;;;;;13.13;7.40;;;12.40;99.90;;;;;;5037458;28;20479;-73
2022/05/10 01:52:31;;;;;;;8.13;7.20;;;12.40;99.90;;;;;;5031252;28;20889;-73
2022/05/10 01:55:22;;;;;;;7.83;7.03;;;12.30;99.90;;;;;;5030438;28;20511;-73
2022/05/10 01:57:48;;;;;;;9.40;7.63;;;12.30;99.90;;;;;;5031186;28;20450;-73
2022/05/10 02:00:21;;;;;;;8.03;6.87;;;12.20;99.90;;;;;;5034383;28;20448;-73
2022/05/10 02:02:52;;;;;;;9.30;6.90;;;12.20;99.90;;;;;;5036225;28;20511;-73
2022/05/10 02:05:31;;;;;;;7.93;7.23;;;12.10;99.90;;;;;;5030300;28;20500;-73
2022/05/10 02:08:02;;;;;;;11.40;7.83;;;12.10;99.90;;;;;;5044839;28;20456;-73
2022/05/10 02:10:35;;;;;;;11.07;8.30;;;12.10;99.90;;;;;;5042829;28;20572;-73
2022/05/10 02:13:08;;;;;;;8.97;7.40;;;12.00;99.90;;;;;;5045413;28;20458;-73
2022/05/10 02:15:41;;;;;;;11.20;7.13;;;12.00;99.90;;;;;;5054254;28;20561;-73
2022/05/10 02:18:14;;;;;;;11.40;8.63;;;12.00;99.90;;;;;;5039151;28;20874;-73
2022/05/10 02:20:48;;;;;;;8.67;7.77;;;12.00;99.90;;;;;;5045270;28;20469;-73
2022/05/10 02:23:19;;;;;;;8.37;7.47;;;12.00;99.90;;;;;;5037470;28;20511;-73
2022/05/10 02:25:51;;;;;;;10.80;7.10;;;12.00;99.90;;;;;;5034418;28;21001;-73
2022/05/10 02:28:23;;;;;;;8.90;7.60;;;12.00;99.90;;;;;;5044072;28;20460;-73
2022/05/10 02:30:53;;;;;;;10.47;7.43;;;12.00;99.90;;;;;;5033910;28;20477;-73
2022/05/10 02:33:21;;;;;;;10.57;8.77;;;12.00;99.90;;;;;;5047203;28;20965;-73
2022/05/10 02:35:53;;;;;;;12.10;7.93;;;12.00;99.90;;;;;;5021327;28;20453;-73
2022/05/10 02:38:22;;;;;;;10.23;7.50;;;12.00;99.90;;;;;;5053861;28;20459;-73
2022/05/10 02:40:52;;;;;;;9.93;7.93;;;12.00;99.90;;;;;;5054181;28;20499;-72
2022/05/10 02:43:23;;;;;;;12.53;8.10;;;11.90;99.90;;;;;;5036791;28;20957;-73
2022/05/10 02:45:51;;;;;;;12.37;7.50;;;11.90;99.90;;;;;;5033948;28;20477;-73
2022/05/10 02:48:23;;;;;;;9.37;7.67;;;11.90;99.90;;;;;;5034310;28;20511;-72
2022/05/10 02:50:50;;;;;;;8.17;7.07;;;11.90;99.90;;;;;;5053290;28;20468;-73
2022/05/10 02:53:17;;;;;;;9.03;7.50;;;11.80;99.90;;;;;;5037090;28;20454;-73
2022/05/10 02:55:49;;;;;;;9.00;7.73;;;11.80;99.90;;;;;;5038700;28;20453;-72
2022/05/10 02:58:21;;;;;;;9.67;8.67;;;11.80;99.90;;;;;;5034101;28;21260;-73
2022/05/10 03:00:52;;;;;;;9.00;8.10;;;11.80;99.90;;;;;;5046377;28;20472;-73
2022/05/10 03:03:25;;;;;;;11.33;9.20;;;11.80;99.90;;;;;;5041105;28;20877;-73
2022/05/10 03:05:53;;;;;;;10.60;9.50;;;11.80;99.90;;;;;;5040256;28;20477;-73
2022/05/10 03:08:20;;;;;;;11.03;9.83;;;11.80;99.90;;;;;;5034011;28;20868;-73
2022/05/10 03:10:46;;;;;;;12.13;9.57;;;11.80;99.90;;;;;;5052555;28;21062;-72
2022/05/10 03:13:13;;;;;;;12.40;10.40;;;11.70;99.90;;;;;;5037656;28;20522;-73
2022/05/10 03:15:41;;;;;;;15.67;10.37;;;11.70;99.90;;;;;;5033722;28;20823;-73
2022/05/10 03:18:09;;;;;;;13.37;10.20;;;11.70;99.90;;;;;;5034740;28;21012;-72
2022/05/10 03:20:35;;;;;;;19.90;10.97;;;11.70;99.90;;;;;;5033161;28;20477;-73
2022/05/10 03:23:02;;;;;;;15.10;9.17;;;11.70;99.90;;;;;;5046279;28;20746;-72
2022/05/10 03:25:31;;;;;;;11.93;10.10;;;11.70;99.90;;;;;;5035042;28;20964;-73
2022/05/10 03:27:59;;;;;;;11.70;9.60;;;11.70;99.90;;;;;;5033481;28;20499;-72
2022/05/10 03:30:25;;;;;;;12.50;9.80;;;11.70;99.90;;;;;;5033445;28;20453;-73
2022/05/10 03:32:53;;;;;;;13.80;9.90;;;11.70;99.90;;;;;;5040797;28;20453;-73
2022/05/10 03:35:21;;;;;;;12.30;10.23;;;11.70;99.90;;;;;;5032642;28;20453;-73
2022/05/10 03:37:48;;;;;;;11.30;10.00;;;11.70;99.90;;;;;;5044531;28;20449;-72
2022/05/10 03:40:15;;;;;;;12.03;10.20;;;11.70;99.90;;;;;;5050758;28;20834;-73
2022/05/10 03:42:44;;;;;;;17.90;9.73;;;11.70;99.90;;;;;;5047020;28;20462;-72
2022/05/10 03:45:12;;;;;;;11.70;9.57;;;11.70;99.90;;;;;;5033374;28;20487;-73
2022/05/10 03:47:40;;;;;;;13.17;9.70;;;11.70;99.90;;;;;;5052698;28;20494;-72
2022/05/10 03:50:08;;;;;;;14.67;9.43;;;11.70;99.90;;;;;;5052725;28;20457;-72
2022/05/10 03:52:37;;;;;;;11.73;10.00;;;11.60;99.90;;;;;;5042497;28;20473;-72
2022/05/10 03:55:04;;;;;;;11.57;9.43;;;11.50;99.90;;;;;;5032365;28;20453;-73
2022/05/10 03:57:31;;;;;;;12.30;9.00;;;11.50;99.90;;;;;;5034625;28;20457;-72
2022/05/10 03:59:58;;;;;;;11.67;8.60;;;11.50;99.90;;;;;;5035296;28;20911;-72
2022/05/10 04:02:24;;;;;;;15.37;9.63;;;11.50;99.90;;;;;;5043030;28;20821;-72
2022/05/10 04:04:51;;;;;;;12.27;9.27;;;11.50;99.90;;;;;;5051877;28;20480;-72
2022/05/10 04:07:18;;;;;;;11.73;9.67;;;11.50;99.90;;;;;;5052654;28;20810;-72
2022/05/10 04:09:46;;;;;;;12.77;10.37;;;11.60;99.90;;;;;;5044731;28;20518;-71
2022/05/10 04:12:13;;;;;;;13.10;10.47;;;11.60;99.90;;;;;;5045051;28;20682;-70
2022/05/10 04:14:40;;;;;;;12.70;9.60;;;11.60;99.90;;;;;;5032026;28;20450;-70
2022/05/10 04:17:07;;;;;;;12.90;9.50;;;11.60;99.90;;;;;;5033536;28;20449;-70
2022/05/10 04:19:33;;;;;;;12.20;9.10;;;11.60;99.90;;;;;;5051096;28;20482;-70
2022/05/10 04:22:00;;;;;;;10.17;9.13;;;11.60;99.90;;;;;;5047631;28;20498;-70
2022/05/10 04:24:26;;;;;;;12.17;8.77;;;11.60;99.90;;;;;;5031730;28;20457;-70
2022/05/10 04:26:54;;;;;;;12.07;8.87;;;11.70;99.90;;;;;;5036201;28;20706;-70
2022/05/10 04:29:21;;;;;;;16.23;9.47;;;11.70;99.90;;;;;;5052349;28;20510;-70
2022/05/10 04:31:48;;;;;;;18.00;9.40;;;11.80;99.90;;;;;;5049146;28;20862;-70
2022/05/10 04:34:15;;;;;;;11.17;8.97;;;11.80;99.90;;;;;;5031674;28;20507;-70
2022/05/10 04:36:41;;;;;;;12.50;9.43;;;11.90;99.90;;;;;;5044535;28;20956;-70
2022/05/10 04:39:08;;;;;;;11.30;9.47;;;11.90;99.90;;;;;;5051260;28;20805;-70
2022/05/10 04:41:37;;;;;;;14.60;9.10;;;11.90;99.90;;;;;;5044210;28;20477;-70
2022/05/10 04:44:07;;;;;;;15.47;9.80;;;11.90;99.90;;;;;;5030278;28;20863;-70
2022/05/10 04:46:36;;;;;;;12.80;11.00;;;12.00;99.90;;;;;;5032086;28;20480;-70
2022/05/10 04:49:03;;;;;;;12.40;9.97;;;12.00;99.90;;;;;;5031617;28;20973;-70
2022/05/10 04:51:30;;;;;;;17.77;11.03;;;12.00;99.90;;;;;;5032938;28;20535;-70
2022/05/10 04:53:57;;;;;;;13.00;9.93;;;12.00;99.90;;;;;;5030780;28;20954;-70
2022/05/10 04:56:24;;;;;;;14.97;9.77;;;12.00;99.90;;;;;;5031834;28;20461;-70
2022/05/10 04:58:54;;;;;;;15.03;10.60;;;12.10;99.90;;;;;;5040144;28;20953;-70
2022/05/10 05:01:27;;;;;;;11.77;9.10;;;12.20;99.90;;;;;;5038110;28;20564;-70
2022/05/10 05:03:56;;;;;;;22.60;10.77;;;12.30;99.90;;;;;;5043679;28;20456;-71
2022/05/10 05:06:24;;;;;;;16.67;10.37;;;12.30;99.90;;;;;;5033227;28;20490;-71
2022/05/10 05:08:51;;;;;;;13.87;10.20;;;12.40;99.90;;;;;;5031596;28;20453;-71
2022/05/10 05:11:17;;;;;;;13.40;10.40;;;12.40;99.90;;;;;;5037326;28;20480;-71
2022/05/10 05:13:44;;;;;;;15.87;11.07;;;12.50;99.90;;;;;;5050387;28;20503;-71
2022/05/10 05:16:11;;;;;;;11.80;9.70;;;12.60;99.90;;;;;;5051481;28;20449;-71
2022/05/10 05:18:39;;;;;;;13.13;10.37;;;12.70;99.90;;;;;;5045343;28;20461;-70
2022/05/10 05:21:06;;;;;;;18.93;10.70;;;12.80;99.90;;;;;;5032763;28;20477;-70
2022/05/10 05:23:32;;;;;;;16.67;10.90;;;12.90;99.90;;;;;;5037234;28;20461;-71
2022/05/10 05:25:59;;;;;;;14.03;10.97;;;13.00;99.90;;;;;;5032541;28;20481;-71
2022/05/10 05:28:26;;;;;;;16.50;10.67;;;13.10;99.90;;;;;;5031929;28;20507;-72
2022/05/10 05:30:53;;;;;;;12.63;10.20;;;13.20;99.90;;;;;;5047408;28;20823;-72
2022/05/10 05:33:19;;;;;;;14.03;11.43;;;13.30;99.90;;;;;;5050760;28;20209;-71
2022/05/10 05:35:47;;;;;;;14.83;11.33;;;13.50;99.90;;;;;;5038901;28;20531;-71
2022/05/10 05:38:14;;;;;;;14.23;11.00;;;13.70;99.90;;;;;;5029489;28;20516;-72
2022/05/10 05:40:41;;;;;;;18.23;11.17;;;13.80;99.90;;;;;;5031281;28;20473;-71
2022/05/10 05:43:08;;;;;;;15.83;11.17;;;14.00;99.90;;;;;;5030202;28;20515;-72
2022/05/10 05:45:35;;;;;;;13.43;10.63;;;14.20;99.90;;;;;;5030823;28;20477;-72
2022/05/10 05:48:02;;;;;;;11.20;9.93;;;14.40;99.90;;;;;;5030453;28;20502;-72
2022/05/10 05:50:30;;;;;;;14.50;10.70;;;14.50;99.90;;;;;;5035434;28;20457;-71
2022/05/10 05:52:59;;;;;;;14.90;10.47;;;14.60;99.90;;;;;;5035254;28;20500;-72
2022/05/10 05:55:26;;;;;;;23.10;11.00;;;14.60;99.90;;;;;;5034721;28;20441;-71
2022/05/10 05:57:52;;;;;;;13.83;10.00;;;14.70;99.90;;;;;;5034974;28;20460;-71
2022/05/10 06:00:24;;;;;;;15.23;10.57;;;14.90;99.90;;;;;;5035269;28;20454;-72
2022/05/10 06:02:51;;;;;;;13.33;10.50;;;15.00;99.90;;;;;;5035237;28;20461;-72
2022/05/10 06:05:18;;;;;;;15.60;10.70;;;15.00;99.90;;;;;;5034657;28;20480;-71
2022/05/10 06:07:45;;;;;;;16.70;11.20;;;15.00;99.90;;;;;;5034981;28;20449;-72
2022/05/10 06:10:14;;;;;;;16.80;10.70;;;14.90;99.90;;;;;;5034752;28;20450;-71
2022/05/10 06:12:41;;;;;;;15.80;11.40;;;15.00;99.90;;;;;;5034898;28;20480;-71
2022/05/10 06:15:10;;;;;;;17.57;10.83;;;15.20;99.90;;;;;;5034073;28;20460;-71
2022/05/10 06:17:38;;;;;;;20.27;11.03;;;15.50;99.90;;;;;;5034841;28;20965;-72
2022/05/10 06:20:06;;;;;;;14.40;12.10;;;15.80;99.90;;;;;;5034977;28;20503;-71
2022/05/10 06:22:33;;;;;;;11.50;10.30;;;15.90;99.90;;;;;;5034678;28;20443;-72
2022/05/10 06:25:00;;;;;;;14.37;10.97;;;16.00;99.90;;;;;;5033563;28;20483;-72
2022/05/10 06:27:28;;;;;;;13.33;11.07;;;16.20;99.90;;;;;;5034854;28;20453;-72
2022/05/10 06:29:54;;;;;;;13.50;10.77;;;16.40;99.90;;;;;;5034391;28;20797;-71
2022/05/10 06:32:23;;;;;;;14.17;10.30;;;16.40;99.90;;;;;;5034763;28;20477;-72
2022/05/10 06:34:50;;;;;;;11.97;10.77;;;16.50;99.90;;;;;;5034019;28;20518;-72
2022/05/10 06:40:07;;;;;;;13.23;10.23;;;16.60;99.90;;;;;;5034273;28;20421;-72
2022/05/10 06:42:36;;;;;;;14.50;11.73;;;16.60;99.90;;;;;;5034604;28;20527;-72
2022/05/10 06:45:03;;;;;;;16.53;11.30;;;16.70;99.90;;;;;;5045638;28;20435;-72
2022/05/10 06:47:30;;;;;;;12.30;10.40;;;16.70;99.90;;;;;;5034982;28;20449;-72
2022/05/10 06:49:57;;;;;;;11.13;9.97;;;16.80;99.90;;;;;;5026748;28;20462;-71
2022/05/10 06:52:23;;;;;;;13.03;10.27;;;16.80;99.90;;;;;;5039020;28;20834;-72
2022/05/10 06:54:50;;;;;;;17.53;10.00;;;16.80;99.90;;;;;;5034805;28;20480;-72
2022/05/10 06:57:17;;;;;;;13.70;9.90;;;17.00;99.90;;;;;;5032824;28;20507;-71
2022/05/10 06:59:45;;;;;;;16.13;10.77;;;17.10;99.90;;;;;;5033739;28;20440;-72
2022/05/10 07:02:12;;;;;;;15.40;11.20;;;17.10;99.90;;;;;;5034902;28;20515;-71
2022/05/10 07:04:38;;;;;;;17.27;11.43;;;17.00;99.90;;;;;;5032516;28;20449;-72
2022/05/10 07:07:05;;;;;;;19.60;10.40;;;16.90;99.90;;;;;;5033498;28;20519;-72
2022/05/10 07:09:32;;;;;;;15.30;11.80;;;16.80;99.90;;;;;;5047883;28;20871;-72
2022/05/10 07:11:59;;;;;;;12.77;10.53;;;16.80;99.90;;;;;;5049416;28;20534;-72
2022/05/10 07:14:26;;;;;;;16.73;11.93;;;16.70;99.90;;;;;;5032756;28;20983;-72
2022/05/10 07:16:55;;;;;;;12.90;10.80;;;16.80;99.90;;;;;;5048565;28;20449;-72
2022/05/10 07:19:22;;;;;;;15.00;10.50;;;17.00;99.90;;;;;;5036280;28;20512;-72
2022/05/10 07:21:49;;;;;;;12.77;10.70;;;17.30;99.90;;;;;;5033317;28;20864;-72
2022/05/10 07:24:19;;;;;;;15.80;11.70;;;17.50;99.90;;;;;;5030043;28;20424;-72
2022/05/10 07:26:45;;;;;;;13.03;10.60;;;17.70;99.90;;;;;;5033309;28;20474;-72
2022/05/10 07:29:12;;;;;;;14.20;10.90;;;17.90;99.90;;;;;;5042569;28;20427;-72
2022/05/10 07:31:39;;;;;;;13.13;10.60;;;17.90;99.90;;;;;;5042899;28;20496;-72
2022/05/10 07:34:08;;;;;;;13.57;10.80;;;18.00;99.90;;;;;;5032975;28;21003;-72
2022/05/10 07:36:35;;;;;;;13.13;10.00;;;18.10;99.90;;;;;;5039246;28;20899;-72
2022/05/10 07:39:02;;;;;;;13.30;11.33;;;18.30;99.90;;;;;;5035001;28;20474;-71
2022/05/10 07:41:29;;;;;;;14.53;11.37;;;18.50;99.90;;;;;;5033281;28;20463;-72
2022/05/10 07:43:56;;;;;;;13.33;10.63;;;18.60;99.90;;;;;;5033891;28;20866;-72
2022/05/10 07:46:24;;;;;;;13.70;11.40;;;18.80;99.90;;;;;;5044804;28;20467;-72
2022/05/10 07:48:51;;;;;;;15.73;11.70;;;19.00;99.90;;;;;;5049867;28;20456;-72
2022/05/10 07:51:21;;;;;;;13.37;10.70;;;19.20;99.90;;;;;;5052493;28;20513;-72
2022/05/10 07:53:48;;;;;;;18.47;11.47;;;19.30;99.90;;;;;;5051498;28;20454;-72
2022/05/10 07:56:15;;;;;;;12.90;10.57;;;19.60;99.90;;;;;;5047556;28;20453;-72
2022/05/10 07:58:41;;;;;;;16.90;11.40;;;19.60;99.90;;;;;;5045077;28;20852;-72
2022/05/10 08:01:09;;;;;;;14.97;9.87;;;19.80;99.90;;;;;;5035636;28;20444;-72
2022/05/10 08:03:36;;;;;;;11.37;9.53;;;20.10;99.90;;;;;;5030610;28;20457;-72
2022/05/10 08:06:04;;;;;;;14.00;10.20;;;20.50;99.90;;;;;;5032709;28;20463;-72
2022/05/10 08:08:34;;;;;;;22.53;9.90;;;20.70;99.90;;;;;;5040450;28;20505;-72
2022/05/10 08:11:02;;;;;;;12.47;10.10;;;20.90;99.90;;;;;;5034090;28;20890;-72
2022/05/10 08:13:32;;;;;;;12.27;10.00;;;21.00;99.90;;;;;;5030560;28;20507;-72
2022/05/10 08:16:00;;;;;;;11.10;9.40;;;21.20;99.90;;;;;;5031995;28;20446;-72
2022/05/10 08:18:28;;;;;;;8.50;7.70;;;21.40;99.90;;;;;;5031934;28;20443;-72
2022/05/10 08:20:57;;;;;;;13.93;7.53;;;21.70;99.90;;;;;;5031771;28;20461;-72
2022/05/10 08:23:26;;;;;;;11.17;7.73;;;21.90;99.90;;;;;;5031659;28;20453;-72
2022/05/10 08:25:55;;;;;;;13.40;8.30;;;22.10;99.90;;;;;;5032706;28;20453;-72
2022/05/10 08:28:22;;;;;;;23.07;8.33;;;21.80;99.90;;;;;;5049208;28;20508;-72
2022/05/10 08:30:50;;;;;;;10.87;8.40;;;21.70;99.90;;;;;;5048509;28;20526;-72
2022/05/10 08:33:19;;;;;;;8.13;7.30;;;21.50;99.90;;;;;;5029757;28;20457;-72
2022/05/10 08:35:47;;;;;;;16.03;8.07;;;21.40;99.90;;;;;;5038368;28;20514;-72
2022/05/10 08:38:13;;;;;;;8.30;6.83;;;21.40;99.90;;;;;;5051625;28;20514;-72
2022/05/10 08:40:46;;;;;;;9.37;7.07;;;21.30;99.90;;;;;;5042774;28;20473;-72
2022/05/10 08:43:25;;;;;;;15.03;7.80;;;21.30;99.90;;;;;;5030736;28;20540;-72
2022/05/10 08:45:53;;;;;;;9.03;7.40;;;21.10;99.90;;;;;;5024791;28;20480;-72
2022/05/10 08:48:20;;;;;;;8.87;7.73;;;21.00;99.90;;;;;;5025829;28;20453;-72
2022/05/10 08:50:49;;;;;;;8.40;6.67;;;20.80;99.90;;;;;;5031674;28;20473;-72
2022/05/10 08:53:17;;;;;;;8.20;7.27;;;20.90;99.90;;;;;;5031030;28;21137;-72
2022/05/10 08:55:50;;;;;;;8.57;7.03;;;20.90;99.90;;;;;;5031962;28;21132;-72
2022/05/10 08:58:43;;;;;;;9.00;7.70;;;21.00;99.90;;;;;;5017142;28;20512;-73
2022/05/10 09:01:16;;;;;;;11.93;7.50;;;21.10;99.90;;;;;;5030819;28;20993;-72
2022/05/10 09:03:47;;;;;;;10.57;7.93;;;21.20;99.90;;;;;;5032470;28;20965;-72
2022/05/10 09:06:23;;;;;;;11.73;7.50;;;21.40;99.90;;;;;;5044706;28;20503;-72
2022/05/10 09:08:59;;;;;;;11.80;8.00;;;21.50;99.90;;;;;;5050126;28;20467;-72
2022/05/10 09:11:40;;;;;;;9.60;8.27;;;21.70;99.90;;;;;;5040903;28;20484;-72
2022/05/10 09:14:11;;;;;;;10.03;7.10;;;21.90;99.90;;;;;;5030068;28;20453;-72
2022/05/10 09:16:38;;;;;;;8.80;7.90;;;22.30;99.90;;;;;;5040484;28;20475;-72
2022/05/10 09:19:06;;;;;;;8.97;8.07;;;22.60;99.90;;;;;;5048913;28;20453;-72
2022/05/10 09:21:43;;;;;;;11.07;8.50;;;22.60;99.90;;;;;;5036162;28;20931;-72
2022/05/10 09:24:16;;;;;;;10.93;8.60;;;22.70;99.90;;;;;;5037171;28;20468;-72
2022/05/10 09:26:44;;;;;;;12.23;8.40;;;23.00;99.90;;;;;;5029812;28;20528;-72
2022/05/10 09:29:20;;;;;;;10.03;7.20;;;23.10;99.90;;;;;;5036782;28;20515;-72
2022/05/10 09:34:50;;;;;;;10.10;8.90;;;23.60;99.90;;;;;;5046222;28;20959;-72
2022/05/10 09:37:24;;;;;;;10.73;7.53;;;23.70;99.90;;;;;;5045141;28;20484;-72
2022/05/10 09:40:00;;;;;;;13.63;7.70;;;23.80;99.90;;;;;;5042699;28;20461;-72
2022/05/10 09:42:30;;;;;;;9.20;7.80;;;23.90;99.90;;;;;;5045521;28;20482;-72
2022/05/10 09:45:05;;;;;;;13.90;7.43;;;23.80;99.90;;;;;;5040516;28;20450;-72
2022/05/10 09:47:32;;;;;;;10.30;8.50;;;24.10;99.90;;;;;;5029737;28;20918;-71
2022/05/10 09:50:19;;;;;;;11.53;8.07;;;24.30;99.90;;;;;;5031072;28;21194;-72
2022/05/10 09:52:48;;;;;;;9.77;7.03;;;24.50;99.90;;;;;;5031234;28;20496;-72
2022/05/10 09:55:26;;;;;;;12.17;8.00;;;24.40;99.90;;;;;;5031667;28;20465;-72
2022/05/10 09:57:53;;;;;;;13.17;7.80;;;24.30;99.90;;;;;;5034731;28;20945;-72
2022/05/10 10:00:39;;;;;;;11.87;7.60;;;24.20;99.90;;;;;;5031472;28;20477;-72
2022/05/10 10:03:06;;;;;;;11.13;7.67;;;24.40;99.90;;;;;;5025288;28;21014;-72
2022/05/10 10:05:35;;;;;;;15.97;9.40;;;24.70;99.90;;;;;;5028539;28;20889;-72
2022/05/10 10:08:02;;;;;;;8.20;7.30;;;24.90;99.90;;;;;;5030463;28;20511;-73
2022/05/10 10:10:30;;;;;;;13.30;8.70;;;25.10;99.90;;;;;;5034801;28;20457;-73
2022/05/10 10:12:57;;;;;;;8.53;7.53;;;25.40;99.90;;;;;;5030297;28;20461;-72
2022/05/10 10:15:31;;;;;;;8.73;7.00;;;25.60;99.90;;;;;;5030205;28;20449;-73
2022/05/10 10:18:00;;;;;;;8.80;6.90;;;25.70;99.90;;;;;;5030451;28;20473;-72
2022/05/10 10:20:39;;;;;;;6.70;6.07;;;26.00;99.90;;;;;;5030248;28;20474;-72
2022/05/10 10:23:11;;;;;;;11.93;7.07;;;26.00;99.90;;;;;;5019861;28;20467;-72
2022/05/10 10:25:42;;;;;;;9.80;6.90;;;25.80;99.90;;;;;;5041582;28;20957;-72
2022/05/10 10:28:21;;;;;;;8.93;6.70;;;25.80;99.90;;;;;;5043622;28;20488;-72
2022/05/10 10:30:53;;;;;;;17.53;7.43;;;25.80;99.90;;;;;;5049278;28;20829;-72
2022/05/10 10:33:26;;;;;;;9.93;7.13;;;25.80;99.90;;;;;;5049946;28;20456;-72
2022/05/10 10:35:56;;;;;;;9.60;6.83;;;25.90;99.90;;;;;;5046808;28;20453;-72
2022/05/10 10:38:29;;;;;;;8.67;6.90;;;26.00;99.90;;;;;;5048072;28;20452;-72
2022/05/10 10:41:01;;;;;;;12.67;7.60;;;25.70;99.90;;;;;;5049213;28;20526;-73
2022/05/10 10:43:32;;;;;;;8.97;7.27;;;25.50;99.90;;;;;;5037529;28;20946;-72
2022/05/10 10:46:08;;;;;;;10.37;7.50;;;25.30;99.90;;;;;;5032948;28;21028;-72
2022/05/10 10:48:44;;;;;;;10.80;7.63;;;25.00;99.90;;;;;;5049312;28;20830;-72
2022/05/10 10:51:12;;;;;;;11.23;6.53;;;24.90;99.90;;;;;;5036826;28;20508;-72
2022/05/10 10:53:40;;;;;;;12.30;7.17;;;24.90;99.90;;;;;;5032899;28;20879;-72
2022/05/10 10:56:21;;;;;;;8.10;6.60;;;25.00;99.90;;;;;;5034102;28;20457;-72
2022/05/10 10:59:00;;;;;;;7.10;6.37;;;24.90;99.90;;;;;;5051001;28;20459;-72
2022/05/10 11:01:45;;;;;;;12.03;7.33;;;24.80;99.90;;;;;;5052589;28;21057;-72
2022/05/10 11:04:26;;;;;;;11.10;7.67;;;24.60;99.90;;;;;;5040977;28;20449;-71
2022/05/10 11:06:54;;;;;;;11.87;6.30;;;24.50;99.90;;;;;;5044226;28;20563;-72
2022/05/10 11:09:36;;;;;;;10.53;6.70;;;24.40;99.90;;;;;;5033466;28;20449;-71
2022/05/10 11:12:14;;;;;;;13.47;6.83;;;24.30;99.90;;;;;;5033053;28;20529;-72
2022/05/10 11:14:56;;;;;;;9.87;6.90;;;24.20;99.90;;;;;;5050920;28;20456;-72
2022/05/10 11:17:36;;;;;;;7.80;7.00;;;24.30;99.90;;;;;;5052089;28;20448;-72
2022/05/10 11:20:15;;;;;;;16.40;7.53;;;24.20;99.90;;;;;;5023722;28;20452;-72
2022/05/10 11:22:46;;;;;;;9.20;7.43;;;24.30;99.90;;;;;;5052412;28;20514;-72
2022/05/10 11:25:23;;;;;;;9.17;7.30;;;24.50;99.90;;;;;;5052383;28;20975;-72
2022/05/10 11:28:12;;;;;;;9.70;7.50;;;24.60;99.90;;;;;;5051105;28;20537;-72
2022/05/10 11:30:47;;;;;;;15.13;8.30;;;24.60;99.90;;;;;;5050785;28;20468;-72
2022/05/10 11:33:30;;;;;;;9.13;7.17;;;24.60;99.90;;;;;;5052372;28;20447;-72
2022/05/10 11:36:02;;;;;;;14.97;6.90;;;24.80;99.90;;;;;;5033280;28;21012;-72
2022/05/10 11:38:42;;;;;;;9.70;7.70;;;24.90;99.90;;;;;;5052101;28;20495;-72
2022/05/10 11:41:16;;;;;;;7.83;6.20;;;25.20;99.90;;;;;;5051956;28;20526;-72
2022/05/10 11:44:25;;;;;;;8.37;6.60;;;25.00;99.90;;;;;;5042130;28;20828;-72
2022/05/10 11:47:09;;;;;;;42.07;7.37;;;25.10;99.90;;;;;;5041997;28;20456;-72
2022/05/10 11:49:59;;;;;;;8.90;6.60;;;25.30;99.90;;;;;;5049364;28;20456;-72
2022/05/10 11:52:55;;;;;;;7.07;6.10;;;25.60;99.90;;;;;;5033080;28;20477;-72
2022/05/10 11:55:31;;;;;;;11.27;7.30;;;26.00;99.90;;;;;;5032200;28;20462;-72
2022/05/10 11:58:00;;;;;;;9.97;6.50;;;25.80;99.90;;;;;;5011527;28;20450;-72
2022/05/10 12:00:51;;;;;;;8.20;7.40;;;25.70;99.90;;;;;;5013134;28;20462;-72
2022/05/10 12:04:03;;;;;;;10.30;6.50;;;25.50;99.90;;;;;;5017543;28;20556;-72
2022/05/10 12:06:43;;;;;;;12.20;7.33;;;25.70;99.90;;;;;;5031586;28;20458;-72
2022/05/10 12:09:43;;;;;;;6.83;6.07;;;26.10;99.90;;;;;;5032173;28;20485;-72
2022/05/10 12:12:54;;;;;;;14.33;7.70;;;26.00;99.90;;;;;;5026501;28;20480;-72
2022/05/10 12:21:22;;;;;;;12.27;7.07;;;26.30;99.90;;;;;;5036237;28;20527;-72
2022/05/10 12:24:12;;;;;;;13.10;7.70;;;26.20;99.90;;;;;;5024317;28;20956;-71
2022/05/10 12:26:43;;;;;;;9.30;7.60;;;26.10;99.90;;;;;;5046654;28;20532;-72
2022/05/10 12:29:35;;;;;;;7.57;6.87;;;26.00;99.90;;;;;;5051005;28;21091;-72
2022/05/10 12:32:04;;;;;;;7.37;6.47;;;26.10;99.90;;;;;;5041465;28;20469;-71
2022/05/10 12:34:52;;;;;;;6.00;5.40;;;26.20;99.90;;;;;;5038269;28;20453;-73
2022/05/10 12:37:41;;;;;;;9.37;5.67;;;26.70;99.90;;;;;;5036807;28;20452;-72
2022/05/10 12:40:31;;;;;;;9.30;5.53;;;26.80;99.90;;;;;;5051147;28;20456;-72
2022/05/10 12:43:28;;;;;;;6.57;5.97;;;26.90;99.90;;;;;;5052099;28;20448;-72
2022/05/10 12:45:57;;;;;;;7.20;5.77;;;26.90;99.90;;;;;;5038944;28;20487;-72
2022/05/10 12:48:43;;;;;;;7.63;5.87;;;26.90;99.90;;;;;;5047786;28;21067;-72
2022/05/10 12:51:27;;;;;;;8.53;5.30;;;27.00;99.90;;;;;;5039088;28;20476;-72
2022/05/10 12:53:59;;;;;;;6.47;5.87;;;26.70;99.90;;;;;;5039707;28;20965;-72
2022/05/10 12:56:27;;;;;;;6.03;5.37;;;26.40;99.90;;;;;;5024260;28;20452;-72
2022/05/10 12:58:57;;;;;;;6.40;5.37;;;26.70;99.90;;;;;;5012631;28;20468;-72
2022/05/10 13:01:26;;;;;;;6.00;5.40;;;27.10;99.90;;;;;;5031411;28;20473;-72
2022/05/10 13:04:00;;;;;;;8.90;5.10;;;26.70;99.90;;;;;;5030754;28;20453;-72
2022/05/10 13:06:37;;;;;;;8.13;5.23;;;26.80;99.90;;;;;;5036024;28;20837;-72
2022/05/10 13:09:17;;;;;;;5.70;4.90;;;26.80;99.90;;;;;;5034650;28;20484;-72
2022/05/10 13:11:48;;;;;;;6.10;5.00;;;26.80;99.90;;;;;;5050988;28;20562;-72
2022/05/10 13:14:16;;;;;;;10.50;5.47;;;26.80;99.90;;;;;;5050798;28;20460;-72